createdAt,value
2022-07-29T00:15:22.553Z,41.4
2022-07-29T00:33:46.413Z,42
2022-07-29T00:55:30.075Z,42.2
2022-07-29T01:15:06.072Z,43.3
2022-07-29T01:34:22.347Z,42.9
2022-07-29T01:54:06.387Z,43.3
2022-07-29T02:14:39.993Z,43.7
2022-07-29T02:34:11.390Z,44.2
2022-07-29T02:54:54.255Z,45.2
2022-07-29T03:14:57.972Z,46.2
2022-07-29T03:34:44.197Z,46
2022-07-29T03:54:49.051Z,47.9
2022-07-29T04:15:03.939Z,49.8
2022-07-29T04:35:29.678Z,51.3
2022-07-29T04:54:48.667Z,52.1
2022-07-29T05:15:19.002Z,47.5
2022-07-29T05:34:36.412Z,45.9
2022-07-29T05:54:03.220Z,44.5
2022-07-29T06:14:41.307Z,46.6
2022-07-29T06:34:37.952Z,45.3
2022-07-29T06:55:25.451Z,45.3
2022-07-29T07:15:15.851Z,44.7
2022-07-29T07:34:40.930Z,44.1
2022-07-29T07:54:53.100Z,43.3
2022-07-29T08:14:59.601Z,42.1
2022-07-29T08:35:18.505Z,41.7
2022-07-29T08:55:01.673Z,41.7
2022-07-29T09:14:35.295Z,39.6
2022-07-29T09:34:59.037Z,39.9
2022-07-29T09:53:44.764Z,42.2
2022-07-29T10:14:16.339Z,57.9
2022-07-29T10:34:46.502Z,94.2
2022-07-29T10:55:06.596Z,97.2
2022-07-29T11:15:17.822Z,94.9
2022-07-29T11:34:34.972Z,73.9
2022-07-29T11:54:27.203Z,59.2
2022-07-29T12:15:02.756Z,50.5
2022-07-29T12:34:54.342Z,49.5
2022-07-29T12:55:07.402Z,47
2022-07-29T13:13:27.945Z,42.9
2022-07-29T13:33:26.752Z,40.3
2022-07-29T13:55:06.733Z,36.5
2022-07-29T14:14:14.687Z,37
2022-07-29T14:35:00.036Z,39.1
2022-07-29T14:54:50.669Z,40.3
2022-07-29T15:14:27.365Z,40
2022-07-29T15:35:20.764Z,41.8
2022-07-29T15:53:53.395Z,41.5
2022-07-29T16:14:51.134Z,44.2
2022-07-29T16:33:59.770Z,62.7
2022-07-29T16:53:48.886Z,97.6
2022-07-29T17:35:56.596Z,100
2022-07-29T17:54:28.563Z,100
2022-07-29T18:14:41.389Z,100
2022-07-29T18:35:02.148Z,100
2022-07-29T18:55:02.509Z,100
2022-07-29T19:14:31.629Z,100
2022-07-29T19:33:54.511Z,100
2022-07-29T19:55:08.929Z,100
2022-07-29T20:14:31.988Z,100
2022-07-29T20:34:47.644Z,100
2022-07-29T20:55:15.532Z,100
2022-07-29T21:14:03.766Z,100
2022-07-29T21:33:59.189Z,100
2022-07-29T21:54:52.822Z,100
2022-07-29T22:14:18.279Z,100
2022-07-29T22:53:59.806Z,100
2022-07-29T23:13:48.793Z,100
2022-07-29T23:33:57.257Z,100
2022-07-29T23:55:36.143Z,100
